Edgewood, South Carolina
Current Conditions -  °F | °C
As of 2:53 AM on Friday 28 Nov 2014 (Local Time) from KCUB Reporting Station
Clear Clear  
Wind Chill: 32°   Ceiling: Unl
Heat Index: 36°   Visibility: 10mi
Dew Point: 25°   Wind: 5mph
Humidity: 64%   Direction: 330°NNW
Pressure: 30.34"   Gusts: NA
Location:  34.0268°N, 81.0007°W
Report Text: KCUB 280753Z AUTO 33004KT 10SM CLR 02/M04 A3034 RMK AO2 SLP274 T00221039
Loading
Personal Weather Stations






























Interactive Weather Map New forecast layout! Learn more

10-Day Weather Forecast

Advertisements
Track Severe Weather on mobile